createdAt,value
2018-12-10T00:08:12.401Z,5.80
2018-12-10T00:18:22.633Z,5.80
2018-12-10T00:38:42.231Z,5.90
2018-12-10T00:43:46.799Z,5.90
2018-12-10T00:48:51.707Z,5.90
2018-12-10T00:53:57.355Z,5.90
2018-12-10T01:04:07.256Z,5.80
2018-12-10T01:09:11.943Z,5.40
2018-12-10T01:24:25.669Z,4.50
2018-12-10T01:29:30.044Z,4.70
2018-12-10T01:39:37.822Z,4.70
2018-12-10T01:44:41.916Z,4.70
2018-12-10T01:49:46.721Z,4.70
2018-12-10T02:10:02.366Z,4.40
2018-12-10T02:15:06.855Z,4.40
2018-12-10T02:25:14.647Z,4.40
2018-12-10T02:30:18.931Z,4.40
2018-12-10T02:35:23.112Z,4.40
2018-12-10T02:40:27.196Z,4.40
2018-12-10T02:45:32.766Z,4.30
2018-12-10T02:50:36.919Z,4.20
2018-12-10T02:55:41.001Z,4.20
2018-12-10T03:00:45.288Z,4.20
2018-12-10T03:10:53.299Z,4.20
2018-12-10T03:15:57.556Z,4.10
2018-12-10T03:21:01.872Z,4.00
2018-12-10T03:26:06.039Z,4.00
2018-12-10T03:36:20.422Z,4.10
2018-12-10T03:41:24.836Z,4.10
2018-12-10T03:51:32.735Z,4.10
2018-12-10T03:56:36.879Z,4.10
2018-12-10T04:01:40.951Z,4.20
2018-12-10T04:06:45.073Z,4.20
2018-12-10T04:11:49.198Z,4.20
2018-12-10T04:16:53.300Z,4.20
2018-12-10T04:21:57.385Z,4.30
2018-12-10T04:27:01.465Z,4.40
2018-12-10T04:37:09.291Z,4.20
2018-12-10T04:42:13.404Z,4.10
2018-12-10T04:47:17.479Z,4.20
2018-12-10T04:52:21.594Z,4.10
2018-12-10T05:07:33.289Z,3.90
2018-12-10T05:12:37.696Z,3.90
2018-12-10T05:22:49.060Z,3.80
2018-12-10T05:38:03.441Z,3.80
2018-12-10T06:03:25.890Z,3.50
2018-12-10T06:13:35.603Z,3.20
2018-12-10T06:23:43.547Z,3.00
2018-12-10T06:28:47.754Z,3.00
2018-12-10T06:33:51.821Z,3.00
2018-12-10T06:38:55.910Z,3.10
2018-12-10T06:43:59.977Z,3.10
2018-12-10T06:49:04.166Z,3.20
2018-12-10T06:54:08.242Z,3.30
2018-12-10T06:59:12.438Z,3.40
2018-12-10T07:04:16.508Z,3.30
2018-12-10T07:09:20.595Z,3.40
2018-12-10T07:14:24.708Z,3.40
2018-12-10T07:24:32.476Z,3.50
2018-12-10T07:29:36.575Z,3.60
2018-12-10T07:34:41.456Z,3.60
2018-12-10T07:49:53.241Z,3.70
2018-12-10T07:54:57.324Z,3.70
2018-12-10T08:00:01.432Z,3.70
2018-12-10T08:05:12.249Z,3.80
2018-12-10T08:10:12.902Z,3.80
2018-12-10T08:15:17.028Z,3.80
2018-12-10T08:20:21.112Z,3.90
2018-12-10T08:25:25.185Z,3.90
2018-12-10T08:30:29.269Z,3.90
2018-12-10T08:35:40.690Z,4.00
2018-12-10T08:40:39.456Z,4.10
2018-12-10T08:45:43.544Z,4.20
2018-12-10T08:50:47.615Z,4.30
2018-12-10T08:55:52.793Z,4.30
2018-12-10T09:00:56.960Z,4.40
2018-12-10T09:16:08.765Z,4.50
2018-12-10T09:21:12.853Z,4.50
2018-12-10T09:26:16.942Z,4.40
2018-12-10T09:31:21.048Z,4.50
2018-12-10T09:36:25.178Z,4.60
2018-12-10T09:41:29.255Z,4.70
2018-12-10T09:46:33.357Z,4.90
2018-12-10T09:51:37.460Z,5.00
2018-12-10T09:56:41.531Z,5.00
2018-12-10T10:06:49.544Z,5.00
2018-12-10T10:11:53.657Z,5.00
2018-12-10T10:16:57.763Z,5.10
2018-12-10T10:27:05.563Z,5.00
2018-12-10T10:32:09.628Z,5.00
2018-12-10T10:37:13.722Z,5.00
2018-12-10T10:42:17.934Z,5.10
2018-12-10T10:47:22.021Z,5.40
2018-12-10T10:52:26.111Z,5.60
2018-12-10T10:57:31.487Z,5.70
2018-12-10T11:07:44.915Z,6.00
2018-12-10T11:12:49.035Z,6.20
2018-12-10T11:17:53.115Z,6.20
2018-12-10T11:22:57.202Z,6.00
2018-12-10T11:28:01.373Z,5.90
2018-12-10T11:33:05.556Z,5.80
2018-12-10T11:38:09.769Z,5.50
2018-12-10T11:48:17.572Z,4.10
2018-12-10T11:53:21.655Z,3.70
2018-12-10T11:58:25.748Z,3.70
2018-12-10T12:03:29.846Z,3.70
2018-12-10T12:08:36.382Z,3.50
2018-12-10T12:23:47.882Z,2.60
2018-12-10T12:28:52.000Z,2.20
2018-12-10T12:33:56.093Z,2.10
2018-12-10T12:39:00.197Z,1.90
2018-12-10T12:44:04.423Z,2.10
2018-12-10T12:49:08.512Z,2.30
2018-12-10T13:14:27.389Z,2.60
2018-12-10T13:39:47.573Z,2.90
2018-12-10T14:00:02.849Z,3.00
2018-12-10T14:15:19.199Z,3.10
2018-12-10T14:20:23.304Z,3.00
2018-12-10T14:25:27.867Z,3.00
2018-12-10T14:35:35.636Z,2.90
2018-12-10T14:40:39.721Z,2.90
2018-12-10T15:00:55.187Z,2.90
2018-12-10T15:05:59.256Z,2.90
2018-12-10T15:11:03.365Z,2.80
2018-12-10T15:16:07.572Z,2.70
2018-12-10T15:36:23.012Z,2.90
2018-12-10T17:07:42.333Z,3.20
2018-12-10T17:58:30.707Z,3.20
2018-12-10T18:03:35.759Z,3.20
2018-12-10T19:55:15.818Z,1.50
2018-12-10T20:56:06.999Z,1.70
2018-12-10T21:06:21.005Z,1.70
2018-12-10T21:11:26.966Z,1.70
2018-12-10T21:41:53.108Z,1.60
2018-12-10T21:52:03.486Z,1.60
2018-12-10T21:57:08.754Z,1.60
2018-12-10T22:37:46.065Z,1.80
2018-12-10T22:42:50.665Z,1.90
2018-12-10T22:47:56.054Z,1.90
2018-12-10T22:53:01.681Z,1.90
2018-12-10T22:58:07.174Z,1.90
2018-12-10T23:03:12.220Z,1.90
2018-12-10T23:08:18.286Z,1.80
2018-12-10T23:13:25.678Z,1.80
2018-12-10T23:23:36.941Z,1.90
2018-12-10T23:43:57.982Z,1.90
2018-12-10T23:54:10.128Z,1.90
2018-12-10T23:59:16.047Z,1.90
